Van Buren, Mississippi
Current Conditions -  °F | °C
As of 5:53 AM on Friday 19 Dec 2014 (Local Time) from KTUP Reporting Station
Overcast Overcast  
Wind Chill: 42°   Ceiling: 3500
Heat Index: 44°   Visibility: 10mi
Dew Point: 38°   Wind: 5mph
Humidity: 79%   Direction: 60°ENE
Pressure: 30.2"   Gusts: NA
Location:  34.0719°N, 88.6162°W
Report Text: KTUP 191153Z 06004KT 10SM OVC035 07/03 A3020 RMK AO2 SLP228 70002 T00670033 10072 20067 53003
Loading
Personal Weather Stations






























Interactive Weather Map New forecast layout! Learn more

10-Day Weather Forecast

Advertisements
Track Severe Weather on mobile